DEOOL EDLW-ZZZZ

Flight info

Callsign DEOOL
Flight time N/A
Altitude 3500
Route DCT
Aircraft DA40/L-VGDW/C

Departure

Time 2026-05-06 16:28
Airport Dortmund Airport (EDLW)

Arrival

Time N/A
Airport ZZZZ
Time Latitude Longitude Altitude Speed Heading
2026-05-06 16:01 51.51162 7.60335 442 ft 0 kts 106°
2026-05-06 16:11 51.51157 7.60356 431 ft 2 kts 159°
2026-05-06 16:11 51.51156 7.60305 442 ft 11 kts 291°
2026-05-06 16:12 51.51161 7.60181 440 ft 6 kts 305°
2026-05-06 16:12 51.51195 7.60179 432 ft 9 kts 30°
2026-05-06 16:12 51.51239 7.60280 440 ft 16 kts 64°
2026-05-06 16:12 51.51287 7.60416 440 ft 15 kts 60°
2026-05-06 16:13 51.51335 7.60557 437 ft 15 kts 60°
2026-05-06 16:13 51.51376 7.60672 423 ft 10 kts 61°
2026-05-06 16:13 51.51389 7.60705 429 ft 0 kts 58°
2026-05-06 16:21 51.51395 7.60723 425 ft 8 kts 61°
2026-05-06 16:21 51.51417 7.60784 428 ft 7 kts 59°
2026-05-06 16:22 51.51444 7.60866 422 ft 10 kts 60°
2026-05-06 16:22 51.51471 7.60943 428 ft 6 kts 59°
2026-05-06 16:22 51.51492 7.61001 425 ft 5 kts 57°
2026-05-06 16:22 51.51512 7.61049 428 ft 5 kts 49°
2026-05-06 16:23 51.51532 7.61062 428 ft 2 kts 351°
2026-05-06 16:23 51.51544 7.61058 428 ft 3 kts 345°
2026-05-06 16:23 51.51568 7.61034 425 ft 3 kts 303°
2026-05-06 16:23 51.51571 7.61026 423 ft 0 kts 290°
2026-05-06 16:24 51.51571 7.61025 424 ft 0 kts 286°
2026-05-06 16:24 51.51572 7.60983 424 ft 6 kts 265°
2026-05-06 16:24 51.51559 7.60902 420 ft 10 kts 254°
2026-05-06 16:24 51.51540 7.60790 411 ft 9 kts 252°
2026-05-06 16:25 51.51526 7.60707 410 ft 7 kts 264°
2026-05-06 16:25 51.51526 7.60683 409 ft 6 kts 279°
2026-05-06 16:25 51.51574 7.60613 407 ft 14 kts 351°
2026-05-06 16:25 51.51624 7.60630 408 ft 7 kts 54°
2026-05-06 16:26 51.51627 7.60638 409 ft 0 kts 62°
2026-05-06 16:26 51.51639 7.60669 410 ft 18 kts 56°
2026-05-06 16:27 51.51796 7.61108 413 ft 70 kts 61°
2026-05-06 16:27 51.52080 7.61906 509 ft 87 kts 59°
2026-05-06 16:27 51.52392 7.62784 664 ft 91 kts 56°
2026-05-06 16:27 51.52695 7.63662 878 ft 89 kts 75°
2026-05-06 16:28 51.52428 7.64468 1029 ft 92 kts 163°
2026-05-06 16:28 51.51847 7.64246 1192 ft 91 kts 226°
2026-05-06 16:28 51.51472 7.63334 1245 ft 107 kts 244°
2026-05-06 16:28 51.51161 7.62205 1249 ft 114 kts 247°
2026-05-06 16:29 51.50847 7.61032 1255 ft 114 kts 247°
2026-05-06 16:29 51.50528 7.59893 1231 ft 109 kts 243°
2026-05-06 16:29 51.50160 7.58843 1221 ft 106 kts 241°
2026-05-06 16:29 51.49847 7.57865 1227 ft 91 kts 246°
2026-05-06 16:30 51.49529 7.57009 1143 ft 88 kts 234°
2026-05-06 16:30 51.49287 7.56498 1095 ft 86 kts 237°
2026-05-06 16:30 51.49479 7.55500 1033 ft 88 kts 346°
2026-05-06 16:30 51.50023 7.55930 951 ft 94 kts 54°
2026-05-06 16:31 51.50316 7.56843 825 ft 84 kts 65°
2026-05-06 16:31 51.50571 7.57635 706 ft 78 kts 58°
2026-05-06 16:31 51.50839 7.58375 623 ft 76 kts 58°
2026-05-06 16:31 51.51095 7.59124 555 ft 81 kts 58°
2026-05-06 16:32 51.51384 7.59934 492 ft 83 kts 59°
2026-05-06 16:32 51.51663 7.60735 448 ft 79 kts 59°
2026-05-06 16:32 51.51891 7.61388 412 ft 63 kts 61°
2026-05-06 16:32 51.52154 7.62147 477 ft 85 kts 57°
2026-05-06 16:33 51.52461 7.63018 618 ft 90 kts 59°
2026-05-06 16:33 51.52762 7.63865 836 ft 87 kts 57°
2026-05-06 16:33 51.53149 7.64651 925 ft 99 kts 18°
2026-05-06 16:34 51.53619 7.63064 1057 ft 106 kts 246°
2026-05-06 16:34 51.53253 7.62030 1090 ft 110 kts 242°
2026-05-06 16:34 51.52896 7.60923 1115 ft 114 kts 244°
2026-05-06 16:34 51.52525 7.59761 1103 ft 118 kts 244°
2026-05-06 16:35 51.52153 7.58572 1121 ft 118 kts 244°
2026-05-06 16:35 51.51782 7.57408 1155 ft 119 kts 236°
2026-05-06 16:35 51.51105 7.57004 1101 ft 102 kts 156°
2026-05-06 16:35 51.50798 7.57943 882 ft 101 kts 86°
2026-05-06 16:36 51.51034 7.58950 654 ft 87 kts 59°
2026-05-06 16:36 51.51311 7.59739 500 ft 78 kts 58°
2026-05-06 16:36 51.51575 7.60485 427 ft 75 kts 59°
2026-05-06 16:36 51.51797 7.61110 413 ft 57 kts 60°
2026-05-06 16:37 51.52040 7.61821 483 ft 79 kts 59°
2026-05-06 16:37 51.52324 7.62622 649 ft 86 kts 60°
2026-05-06 16:37 51.52377 7.63575 808 ft 92 kts 105°
2026-05-06 16:37 51.52054 7.64531 928 ft 104 kts 126°
2026-05-06 16:38 51.51618 7.65458 1139 ft 105 kts 133°
2026-05-06 16:38 51.51109 7.66319 1314 ft 109 kts 137°
2026-05-06 16:38 51.50535 7.67155 1468 ft 114 kts 141°
2026-05-06 16:38 51.49896 7.67991 1550 ft 123 kts 142°
2026-05-06 16:39 51.49218 7.68876 1604 ft 128 kts 143°
2026-05-06 16:39 51.48489 7.69795 1533 ft 137 kts 145°
2026-05-06 16:39 51.47730 7.70697 1585 ft 134 kts 145°
2026-05-06 16:39 51.46973 7.71564 1609 ft 133 kts 149°
2026-05-06 16:40 51.46126 7.72182 1623 ft 135 kts 165°
2026-05-06 16:40 51.45212 7.72510 1723 ft 127 kts 169°
2026-05-06 16:40 51.44350 7.72829 1781 ft 128 kts 169°
2026-05-06 16:40 51.43460 7.73112 1860 ft 124 kts 169°
2026-05-06 16:41 51.42596 7.73437 1859 ft 131 kts 168°
2026-05-06 16:41 51.41678 7.73775 1832 ft 135 kts 171°
2026-05-06 16:41 51.40773 7.74060 1927 ft 130 kts 171°
2026-05-06 16:41 51.39881 7.74319 1988 ft 129 kts 174°
2026-05-06 16:42 51.38995 7.74495 2093 ft 124 kts 175°
2026-05-06 16:42 51.38166 7.74666 2172 ft 126 kts 175°
2026-05-06 16:42 51.37268 7.74819 2169 ft 130 kts 176°
2026-05-06 16:42 51.36411 7.74958 2288 ft 121 kts 176°
2026-05-06 16:43 51.35586 7.75099 2417 ft 119 kts 176°
2026-05-06 16:43 51.34759 7.75246 2540 ft 120 kts 176°
2026-05-06 16:43 51.33934 7.75393 2661 ft 119 kts 176°
2026-05-06 16:43 51.33122 7.75540 2788 ft 117 kts 176°
2026-05-06 16:44 51.32320 7.75687 2911 ft 115 kts 177°
2026-05-06 16:44 51.31519 7.75833 2998 ft 119 kts 176°
2026-05-06 16:44 51.30664 7.75983 2994 ft 127 kts 176°
2026-05-06 16:44 51.29766 7.76135 2999 ft 133 kts 176°
2026-05-06 16:45 51.28830 7.76291 2994 ft 136 kts 176°
2026-05-06 16:45 51.27887 7.76448 2994 ft 136 kts 176°
2026-05-06 16:45 51.26944 7.76599 2992 ft 136 kts 176°
2026-05-06 16:45 51.26010 7.76745 3015 ft 136 kts 176°
2026-05-06 16:46 51.25042 7.76882 2879 ft 141 kts 176°
2026-05-06 16:46 51.24102 7.77006 2990 ft 132 kts 177°
2026-05-06 16:46 51.23181 7.77151 2995 ft 134 kts 176°
2026-05-06 16:46 51.22255 7.77299 2995 ft 134 kts 176°
2026-05-06 16:47 51.21331 7.77447 3000 ft 134 kts 176°
2026-05-06 16:47 51.20399 7.77603 2995 ft 136 kts 176°
2026-05-06 16:47 51.19458 7.77762 3000 ft 137 kts 176°
2026-05-06 16:47 51.18511 7.77921 2997 ft 136 kts 176°
2026-05-06 16:48 51.17572 7.78080 2995 ft 135 kts 176°
2026-05-06 16:48 51.16634 7.78234 3023 ft 134 kts 176°
2026-05-06 16:48 51.16018 7.78337 3113 ft 130 kts 176°
2026-05-06 16:48 51.15135 7.78489 3239 ft 125 kts 176°
2026-05-06 16:49 51.14281 7.78635 3360 ft 123 kts 176°
2026-05-06 16:49 51.13442 7.78779 3483 ft 121 kts 176°
2026-05-06 16:49 51.12586 7.78920 3490 ft 127 kts 176°
2026-05-06 16:49 51.11700 7.79067 3498 ft 129 kts 176°
2026-05-06 16:50 51.10799 7.79217 3496 ft 131 kts 176°
2026-05-06 16:50 51.09896 7.79370 3497 ft 133 kts 176°
2026-05-06 16:50 51.08974 7.79524 3497 ft 134 kts 176°
2026-05-06 16:50 51.08069 7.79890 3504 ft 135 kts 158°
2026-05-06 16:51 51.07210 7.80531 3500 ft 137 kts 156°
2026-05-06 16:51 51.06351 7.81191 3501 ft 137 kts 156°
2026-05-06 16:51 51.05485 7.81840 3501 ft 138 kts 158°
2026-05-06 16:51 51.04601 7.82436 3504 ft 138 kts 159°
2026-05-06 16:52 51.03712 7.83030 3499 ft 139 kts 159°
2026-05-06 16:52 51.02819 7.83619 3502 ft 139 kts 159°
2026-05-06 16:52 51.01924 7.84217 3501 ft 140 kts 160°
2026-05-06 16:52 51.01016 7.84776 3502 ft 139 kts 161°
2026-05-06 16:53 51.00142 7.85434 3453 ft 143 kts 145°
2026-05-06 16:53 50.99503 7.86645 3433 ft 143 kts 117°
2026-05-06 16:53 50.99161 7.88148 3380 ft 145 kts 107°
2026-05-06 16:53 50.98853 7.89659 3411 ft 142 kts 109°
2026-05-06 16:54 50.98559 7.91153 3413 ft 142 kts 107°
2026-05-06 16:54 50.98268 7.92629 3437 ft 140 kts 109°
2026-05-06 16:54 50.97843 7.94025 3419 ft 141 kts 127°
2026-05-06 16:54 50.97194 7.95146 3456 ft 137 kts 139°
2026-05-06 16:55 50.96463 7.96126 3448 ft 138 kts 144°
2026-05-06 16:55 50.95689 7.97014 3455 ft 137 kts 148°
2026-05-06 16:55 50.94880 7.97821 3453 ft 138 kts 153°
2026-05-06 16:55 50.94022 7.98511 3449 ft 137 kts 156°
2026-05-06 16:56 50.93151 7.99118 3455 ft 137 kts 159°
2026-05-06 16:56 50.92257 7.99657 3440 ft 139 kts 163°
2026-05-06 16:56 50.91334 8.00132 3434 ft 139 kts 164°
2026-05-06 16:56 50.90406 8.00475 3467 ft 135 kts 176°
2026-05-06 16:57 50.89472 8.00419 3456 ft 136 kts 193°
2026-05-06 16:57 50.88585 7.99980 3480 ft 133 kts 204°
2026-05-06 16:57 50.87715 7.99405 3457 ft 135 kts 206°
2026-05-06 16:57 50.86869 7.98723 3420 ft 136 kts 207°
2026-05-06 16:58 50.85975 7.98219 3374 ft 138 kts 197°
2026-05-06 16:58 50.85037 7.97884 3351 ft 137 kts 190°
2026-05-06 16:58 50.84092 7.97775 3374 ft 135 kts 181°
2026-05-06 16:58 50.83168 7.97929 3401 ft 133 kts 174°
2026-05-06 16:59 50.82262 7.98148 3417 ft 131 kts 173°
2026-05-06 16:59 50.81369 7.98378 3443 ft 131 kts 172°
2026-05-06 16:59 50.80467 7.98623 3476 ft 132 kts 172°
2026-05-06 16:59 50.79573 7.98873 3554 ft 129 kts 172°
2026-05-06 17:00 50.78680 7.99105 3583 ft 132 kts 173°
2026-05-06 17:00 50.77751 7.99325 3526 ft 138 kts 173°
2026-05-06 17:00 50.76802 7.99600 3481 ft 139 kts 169°
2026-05-06 17:00 50.75863 7.99993 3430 ft 140 kts 167°
2026-05-06 17:01 50.74944 8.00376 3453 ft 136 kts 168°
2026-05-06 17:01 50.74047 8.00756 3527 ft 132 kts 167°
2026-05-06 17:01 50.73147 8.01145 3534 ft 135 kts 166°
2026-05-06 17:01 50.72234 8.01565 3513 ft 138 kts 166°
2026-05-06 17:02 50.71318 8.02012 3517 ft 137 kts 164°
2026-05-06 17:02 50.70402 8.02465 3497 ft 138 kts 165°
2026-05-06 17:02 50.69488 8.02929 3469 ft 138 kts 164°
2026-05-06 17:02 50.68568 8.03375 3452 ft 138 kts 164°
2026-05-06 17:03 50.67663 8.03839 3491 ft 136 kts 162°
2026-05-06 17:03 50.66754 8.04297 3483 ft 138 kts 169°
2026-05-06 17:03 50.65808 8.04443 3491 ft 136 kts 186°
2026-05-06 17:03 50.64875 8.04239 3480 ft 135 kts 193°
2026-05-06 17:04 50.63962 8.03876 3471 ft 136 kts 198°
2026-05-06 17:04 50.63055 8.03472 3482 ft 135 kts 198°
2026-05-06 17:04 50.62148 8.03085 3494 ft 134 kts 198°
2026-05-06 17:04 50.61256 8.02687 3508 ft 133 kts 198°
2026-05-06 17:05 50.60366 8.02259 3495 ft 133 kts 202°
2026-05-06 17:05 50.59497 8.01750 3467 ft 134 kts 203°
2026-05-06 17:05 50.58624 8.01224 3451 ft 134 kts 202°
2026-05-06 17:05 50.57730 8.00734 3389 ft 137 kts 200°
2026-05-06 17:06 50.56831 8.00275 3407 ft 134 kts 200°
2026-05-06 17:06 50.55946 7.99843 3443 ft 133 kts 199°
2026-05-06 17:06 50.55056 7.99420 3436 ft 135 kts 198°
2026-05-06 17:06 50.54150 7.99046 3428 ft 135 kts 196°
2026-05-06 17:07 50.53229 7.98718 3415 ft 136 kts 195°
2026-05-06 17:07 50.52313 7.98344 3379 ft 138 kts 198°
2026-05-06 17:07 50.51387 7.97933 3333 ft 138 kts 198°
2026-05-06 17:07 50.50458 7.97612 3330 ft 137 kts 191°
2026-05-06 17:08 50.49530 7.97349 3342 ft 134 kts 191°
2026-05-06 17:08 50.48624 7.97116 3245 ft 124 kts 192°
2026-05-06 17:08 50.47812 7.96972 2959 ft 109 kts 185°
2026-05-06 17:08 50.47107 7.96924 2822 ft 99 kts 185°
2026-05-06 17:09 50.46426 7.96909 2651 ft 97 kts 183°
2026-05-06 17:09 50.45751 7.96889 2477 ft 97 kts 184°
2026-05-06 17:09 50.45078 7.96887 2338 ft 96 kts 183°
2026-05-06 17:09 50.44412 7.96911 2149 ft 96 kts 181°
2026-05-06 17:10 50.43804 7.97283 1939 ft 96 kts 137°
2026-05-06 17:10 50.43680 7.98194 1840 ft 86 kts 65°
2026-05-06 17:10 50.43925 7.99038 1776 ft 85 kts 66°
2026-05-06 17:10 50.44137 7.99935 1667 ft 88 kts 69°
2026-05-06 17:11 50.44346 8.00843 1524 ft 90 kts 72°
2026-05-06 17:11 50.44333 8.01742 1368 ft 81 kts 124°
2026-05-06 17:11 50.43893 8.02235 1145 ft 81 kts 158°
2026-05-06 17:11 50.43386 8.02462 907 ft 70 kts 185°
2026-05-06 17:12 50.42974 8.02169 778 ft 63 kts 226°
2026-05-06 17:12 50.42772 8.01548 690 ft 62 kts 250°
2026-05-06 17:12 50.42658 8.00979 683 ft 43 kts 253°
2026-05-06 17:12 50.42624 8.00773 693 ft 4 kts 288°
2026-05-06 17:13 50.42630 8.00718 694 ft 5 kts 242°
2026-05-06 17:13 50.42607 8.00725 695 ft 6 kts 79°
2026-05-06 17:13 50.42631 8.00841 691 ft 18 kts 72°
2026-05-06 17:13 50.42659 8.00982 683 ft 14 kts 74°
2026-05-06 17:14 50.42692 8.01151 674 ft 18 kts 73°
2026-05-06 17:14 50.42725 8.01325 670 ft 14 kts 73°
2026-05-06 17:14 50.42771 8.01430 665 ft 11 kts 34°
2026-05-06 17:14 50.42805 8.01451 667 ft 3 kts 327°
2026-05-06 17:15 50.42823 8.01405 668 ft 5 kts 290°
2026-05-06 17:15 50.42822 8.01346 668 ft 5 kts 257°
2026-05-06 17:15 50.42809 8.01288 667 ft 6 kts 250°
2026-05-06 17:15 50.42809 8.01275 667 ft 0 kts 19°